createdAt,value
2023-02-13T00:02:23.080Z,16.10
2023-02-13T00:05:26.677Z,15.95
2023-02-13T00:08:30.190Z,14.75
2023-02-13T00:11:35.556Z,13.60
2023-02-13T00:14:39.734Z,17.45
2023-02-13T00:17:44.769Z,13.85
2023-02-13T00:20:48.199Z,16.40
2023-02-13T00:23:52.522Z,17.80
2023-02-13T00:26:57.304Z,17.52
2023-02-13T00:30:01.105Z,17.58
2023-02-13T00:33:08.612Z,15.43
2023-02-13T00:36:13.074Z,16.35
2023-02-13T00:39:17.505Z,14.75
2023-02-13T00:42:23.988Z,17.75
2023-02-13T00:45:27.664Z,14.48
2023-02-13T00:48:35.229Z,13.25
2023-02-13T00:51:40.539Z,17.20
2023-02-13T00:54:45.160Z,13.25
2023-02-13T00:57:51.899Z,15.20
2023-02-13T01:00:56.375Z,19.23
2023-02-13T01:04:02.742Z,12.85
2023-02-13T01:07:07.060Z,14.55
2023-02-13T01:10:11.882Z,16.10
2023-02-13T01:13:16.108Z,21.60
2023-02-13T01:16:20.634Z,17.25
2023-02-13T01:19:27.512Z,16.27
2023-02-13T01:22:33.181Z,12.15
2023-02-13T01:25:36.689Z,12.55
2023-02-13T01:28:40.289Z,13.23
2023-02-13T01:31:44.642Z,18.58
2023-02-13T01:34:49.859Z,17.25
2023-02-13T01:37:53.614Z,15.02
2023-02-13T01:40:57.510Z,15.32
2023-02-13T01:44:02.080Z,18.20
2023-02-13T01:47:05.681Z,15.20
2023-02-13T01:50:14.530Z,14.55
2023-02-13T01:53:20.585Z,16.77
2023-02-13T01:56:27.327Z,17.05
2023-02-13T01:59:34.138Z,16.38
2023-02-13T02:02:39.390Z,18.48
2023-02-13T02:05:44.697Z,19.63
2023-02-13T02:08:48.405Z,23.77
2023-02-13T02:11:59.146Z,15.90
2023-02-13T02:15:04.017Z,17.55
2023-02-13T02:18:14.992Z,17.42
2023-02-13T02:21:37.362Z,18.83
2023-02-13T02:25:04.162Z,17.00
2023-02-13T02:28:17.952Z,20.13
2023-02-13T02:31:38.836Z,17.45
2023-02-13T02:34:47.706Z,17.65
2023-02-13T02:37:56.116Z,16.73
2023-02-13T02:41:07.273Z,17.35
2023-02-13T02:44:20.204Z,18.83
2023-02-13T02:47:50.498Z,17.05
2023-02-13T02:50:55.804Z,14.40
2023-02-13T02:54:25.549Z,16.85
2023-02-13T02:57:47.148Z,16.27
2023-02-13T03:01:09.810Z,15.80
2023-02-13T03:04:35.529Z,17.02
2023-02-13T03:07:40.008Z,13.88
2023-02-13T03:11:01.399Z,17.88
2023-02-13T03:14:08.880Z,17.08
2023-02-13T03:17:31.120Z,13.70
2023-02-13T03:21:10.817Z,20.30
2023-02-13T03:24:19.392Z,15.90
2023-02-13T03:27:43.144Z,16.30
2023-02-13T03:30:54.824Z,21.42
2023-02-13T03:34:00.618Z,17.42
2023-02-13T03:37:25.730Z,17.73
2023-02-13T03:40:32.353Z,16.38
2023-02-13T03:43:38.290Z,16.02
2023-02-13T03:46:43.630Z,18.92
2023-02-13T03:50:06.894Z,17.90
2023-02-13T03:53:13.346Z,16.13
2023-02-13T03:56:37.240Z,19.83
2023-02-13T03:59:41.105Z,22.63
2023-02-13T04:02:50.003Z,23.50
2023-02-13T04:05:56.520Z,20.77
2023-02-13T04:09:02.097Z,18.85
2023-02-13T04:12:11.303Z,17.20
2023-02-13T04:15:17.971Z,15.70
2023-02-13T04:18:23.985Z,16.63
2023-02-13T04:21:27.501Z,17.75
2023-02-13T04:24:33.305Z,20.13
2023-02-13T04:27:37.868Z,17.77
2023-02-13T04:30:42.217Z,15.10
2023-02-13T04:33:46.740Z,12.43
2023-02-13T04:36:54.099Z,16.55
2023-02-13T04:39:59.353Z,19.58
2023-02-13T04:43:02.992Z,14.45
2023-02-13T04:46:06.669Z,16.73
2023-02-13T04:49:11.649Z,14.52
2023-02-13T04:52:16.534Z,16.23
2023-02-13T04:55:22.081Z,16.10
2023-02-13T04:58:25.479Z,14.73
2023-02-13T05:01:29.016Z,14.60
2023-02-13T05:04:32.650Z,13.73
2023-02-13T05:07:36.224Z,12.63
2023-02-13T05:11:59.121Z,16.13
2023-02-13T05:20:16.314Z,18.02
2023-02-13T05:23:55.652Z,16.58
2023-02-13T05:26:59.362Z,16.20
2023-02-13T05:30:03.074Z,12.23
2023-02-13T05:33:06.573Z,16.33
2023-02-13T05:36:12.096Z,19.38
2023-02-13T05:39:16.066Z,14.95
2023-02-13T05:42:19.505Z,13.45
2023-02-13T05:45:22.768Z,17.65
2023-02-13T05:48:26.106Z,13.23
2023-02-13T05:51:30.830Z,15.45
2023-02-13T05:54:34.330Z,15.57
2023-02-13T05:57:37.708Z,16.55
2023-02-13T06:00:41.741Z,12.75
2023-02-13T06:03:45.818Z,12.38
2023-02-13T06:06:50.577Z,16.17
2023-02-13T06:09:53.851Z,11.50
2023-02-13T06:12:58.140Z,14.45
2023-02-13T06:16:01.487Z,13.50
2023-02-13T06:19:04.914Z,12.95
2023-02-13T06:22:10.138Z,12.77
2023-02-13T06:25:13.831Z,16.02
2023-02-13T06:28:17.324Z,12.60
2023-02-13T06:31:20.961Z,11.63
2023-02-13T06:34:24.449Z,19.20
2023-02-13T06:37:29.198Z,12.75
2023-02-13T06:40:32.456Z,9.75
2023-02-13T06:43:35.779Z,11.80
2023-02-13T06:46:39.253Z,8.38
2023-02-13T06:49:42.567Z,10.82
2023-02-13T06:52:51.380Z,10.55
2023-02-13T06:55:54.803Z,11.02
2023-02-13T06:58:59.696Z,11.57
2023-02-13T07:02:03.039Z,10.43
2023-02-13T07:05:06.415Z,9.80
2023-02-13T07:08:11.605Z,12.75
2023-02-13T07:11:18.807Z,11.77
2023-02-13T07:14:22.286Z,8.63
2023-02-13T07:17:26.642Z,11.02
2023-02-13T07:20:30.285Z,16.83
2023-02-13T07:23:35.070Z,15.90
2023-02-13T07:26:38.755Z,13.07
2023-02-13T07:29:42.029Z,11.32
2023-02-13T07:32:48.193Z,12.57
2023-02-13T07:35:54.341Z,15.73
2023-02-13T07:38:59.178Z,11.27
2023-02-13T07:42:02.867Z,11.90
2023-02-13T07:45:07.634Z,13.82
2023-02-13T07:48:10.971Z,16.50
2023-02-13T07:51:14.580Z,11.85
2023-02-13T07:54:20.565Z,14.60
2023-02-13T07:57:24.140Z,11.05
2023-02-13T08:01:22.895Z,13.32
2023-02-13T08:04:26.548Z,12.70
2023-02-13T08:07:29.867Z,14.00
2023-02-13T08:10:52.490Z,14.82
2023-02-13T08:13:56.151Z,19.05
2023-02-13T08:17:00.456Z,16.35
2023-02-13T08:20:03.916Z,12.75
2023-02-13T08:23:09.522Z,14.23
2023-02-13T08:26:17.907Z,14.10
2023-02-13T08:29:25.371Z,11.40
2023-02-13T08:32:29.976Z,16.38
2023-02-13T08:35:41.208Z,10.50
2023-02-13T08:38:44.621Z,11.95
2023-02-13T08:41:49.636Z,12.63
2023-02-13T08:44:53.438Z,14.35
2023-02-13T08:47:58.341Z,10.85
2023-02-13T08:51:04.784Z,8.23
2023-02-13T08:54:08.450Z,15.70
2023-02-13T08:57:14.058Z,12.70
2023-02-13T09:00:20.608Z,27.52
2023-02-13T09:03:24.020Z,33.63
2023-02-13T09:06:27.544Z,29.83
2023-02-13T09:09:31.964Z,17.90
2023-02-13T09:12:39.118Z,13.50
2023-02-13T09:15:42.963Z,12.20
2023-02-13T09:18:48.890Z,22.83
2023-02-13T09:21:52.545Z,31.42
2023-02-13T09:24:56.090Z,80.68
2023-02-13T09:28:04.053Z,42.97
2023-02-13T09:31:08.161Z,27.38
2023-02-13T09:34:11.851Z,27.17
2023-02-13T09:37:19.114Z,17.42
2023-02-13T09:40:25.235Z,15.30
2023-02-13T09:43:32.161Z,11.52
2023-02-13T09:46:38.227Z,15.27
2023-02-13T09:49:43.719Z,19.90
2023-02-13T09:52:49.664Z,16.92
2023-02-13T09:55:58.764Z,18.05
2023-02-13T09:59:10.979Z,14.27
2023-02-13T10:02:24.415Z,10.50
2023-02-13T10:05:39.495Z,11.35
2023-02-13T10:08:57.265Z,12.18
2023-02-13T10:12:15.216Z,12.80
2023-02-13T10:15:24.767Z,10.13
2023-02-13T10:57:46.186Z,17.95
2023-02-13T11:00:57.687Z,17.13
2023-02-13T11:04:03.683Z,11.40
2023-02-13T11:07:13.219Z,11.68
2023-02-13T11:10:19.217Z,12.07
2023-02-13T11:13:24.854Z,11.32
2023-02-13T11:16:28.403Z,12.23
2023-02-13T11:19:33.533Z,11.25
2023-02-13T11:22:37.856Z,13.15
2023-02-13T11:25:41.322Z,10.73
2023-02-13T11:28:51.849Z,12.38
2023-02-13T11:32:06.663Z,14.98
2023-02-13T11:35:28.713Z,9.38
2023-02-13T11:38:32.205Z,10.38
2023-02-13T11:41:40.222Z,16.83
2023-02-13T11:44:46.445Z,13.93
2023-02-13T11:47:50.225Z,11.25
2023-02-13T11:50:56.259Z,11.13
2023-02-13T11:54:01.133Z,14.85
2023-02-13T11:57:06.450Z,15.52
2023-02-13T12:00:27.681Z,15.50
2023-02-13T12:03:33.810Z,12.30
2023-02-13T12:06:41.417Z,12.52
2023-02-13T12:09:45.950Z,12.85
2023-02-13T12:12:54.580Z,13.32
2023-02-13T12:16:01.350Z,14.13
2023-02-13T12:19:07.977Z,15.48
2023-02-13T12:22:16.448Z,15.82
2023-02-13T12:25:23.590Z,16.45
2023-02-13T12:28:32.755Z,14.70
2023-02-13T12:31:54.354Z,21.38
2023-02-13T12:35:09.831Z,22.67
2023-02-13T12:38:20.212Z,17.50
2023-02-13T12:41:25.612Z,16.67
2023-02-13T12:44:36.709Z,14.55
2023-02-13T12:47:44.046Z,17.27
2023-02-13T12:50:58.958Z,17.98
2023-02-13T12:54:22.238Z,17.40
2023-02-13T12:57:32.411Z,14.98
2023-02-13T13:00:40.683Z,17.73
2023-02-13T13:03:48.531Z,17.25
2023-02-13T13:07:11.184Z,17.73
2023-02-13T13:10:34.854Z,16.83
2023-02-13T13:13:43.465Z,15.15
2023-02-13T13:16:52.349Z,15.75
2023-02-13T13:20:04.491Z,18.10
2023-02-13T13:23:13.196Z,14.70
2023-02-13T13:26:23.312Z,18.33
2023-02-13T13:29:29.281Z,17.85
2023-02-13T13:32:34.300Z,23.70
2023-02-13T13:35:40.505Z,16.10
2023-02-13T13:38:53.454Z,17.33
2023-02-13T13:42:02.775Z,19.55
2023-02-13T13:45:10.801Z,16.00
2023-02-13T13:48:33.577Z,17.13
2023-02-13T13:51:37.041Z,20.38
2023-02-13T13:54:42.324Z,19.52
2023-02-13T13:58:09.805Z,17.40
2023-02-13T14:01:18.041Z,25.20
2023-02-13T14:04:41.568Z,18.55
2023-02-13T14:07:45.014Z,18.23
2023-02-13T14:11:09.434Z,22.48
2023-02-13T14:14:43.076Z,18.48
2023-02-13T14:17:58.674Z,18.25
2023-02-13T14:21:03.425Z,22.40
2023-02-13T14:24:15.018Z,19.20
2023-02-13T14:27:23.652Z,16.95
2023-02-13T14:30:30.591Z,23.35
2023-02-13T14:33:35.522Z,17.90
2023-02-13T14:36:42.397Z,21.75
2023-02-13T14:39:56.990Z,15.15
2023-02-13T14:43:01.929Z,19.65
2023-02-13T14:46:21.727Z,19.08
2023-02-13T14:49:28.160Z,16.80
2023-02-13T14:52:35.202Z,18.25
2023-02-13T14:55:41.654Z,18.33
2023-02-13T14:58:48.157Z,18.52
2023-02-13T15:01:53.196Z,17.13
2023-02-13T15:05:01.885Z,15.38
2023-02-13T15:08:08.629Z,16.92
2023-02-13T15:11:35.310Z,17.13
2023-02-13T15:14:38.948Z,18.67
2023-02-13T15:17:42.533Z,19.95
2023-02-13T15:20:48.056Z,18.70
2023-02-13T15:23:52.431Z,18.42
2023-02-13T15:26:57.520Z,18.65
2023-02-13T15:30:03.474Z,19.83
2023-02-13T15:33:20.901Z,18.85
2023-02-13T15:36:26.614Z,22.73
2023-02-13T15:39:34.562Z,22.13
2023-02-13T15:42:39.528Z,17.77
2023-02-13T15:45:45.315Z,15.57
2023-02-13T15:48:49.249Z,20.20
2023-02-13T15:52:03.237Z,20.67
2023-02-13T15:55:06.897Z,20.77
2023-02-13T15:58:12.557Z,24.27
2023-02-13T16:01:16.548Z,19.48
2023-02-13T16:04:21.293Z,23.38
2023-02-13T16:07:26.253Z,20.45
2023-02-13T16:10:31.301Z,19.23
2023-02-13T16:13:34.798Z,18.92
2023-02-13T16:16:44.971Z,20.77
2023-02-13T16:19:54.285Z,28.40
2023-02-13T16:23:00.201Z,20.15
2023-02-13T16:26:05.719Z,18.00
2023-02-13T16:29:12.558Z,20.55
2023-02-13T16:32:20.576Z,26.15
2023-02-13T16:35:29.320Z,26.27
2023-02-13T16:38:36.098Z,24.17
2023-02-13T16:41:39.505Z,26.80
2023-02-13T16:44:43.240Z,27.05
2023-02-13T16:47:46.695Z,18.90
2023-02-13T16:50:57.031Z,22.70
2023-02-13T16:54:04.703Z,21.98
2023-02-13T16:57:19.337Z,26.25
2023-02-13T17:00:25.565Z,22.30
2023-02-13T17:03:29.283Z,28.83
2023-02-13T17:06:32.731Z,22.77
2023-02-13T17:09:37.534Z,23.20
2023-02-13T17:12:41.252Z,24.92
2023-02-13T17:15:45.458Z,25.33
2023-02-13T17:18:49.077Z,21.25
2023-02-13T17:21:54.573Z,19.52
2023-02-13T17:24:59.303Z,25.55
2023-02-13T17:28:03.977Z,26.02
2023-02-13T17:31:11.740Z,20.42
2023-02-13T17:34:15.178Z,20.48
2023-02-13T17:37:20.315Z,22.45
2023-02-13T17:40:29.456Z,22.23
2023-02-13T17:43:36.439Z,27.38
2023-02-13T17:47:07.384Z,26.38
2023-02-13T17:59:11.350Z,26.25
2023-02-13T18:02:38.739Z,24.42
2023-02-13T18:05:50.683Z,25.30
2023-02-13T18:09:13.839Z,26.95
2023-02-13T18:12:28.468Z,23.75
2023-02-13T18:15:46.964Z,26.23
2023-02-13T18:19:05.903Z,21.08
2023-02-13T18:22:23.273Z,25.02
2023-02-13T18:25:26.914Z,27.70
2023-02-13T18:28:50.775Z,19.80
2023-02-13T18:32:10.375Z,28.48
2023-02-13T19:20:41.152Z,26.15
2023-02-13T19:23:44.504Z,23.92
2023-02-13T19:27:25.827Z,25.08
2023-02-13T19:30:29.911Z,21.70
2023-02-13T19:33:33.181Z,25.80
2023-02-13T19:36:37.694Z,25.85
2023-02-13T19:40:06.463Z,23.33
2023-02-13T19:43:10.542Z,27.05
2023-02-13T19:46:13.950Z,29.13
2023-02-13T19:49:18.850Z,24.65
2023-02-13T19:52:24.552Z,25.17
2023-02-13T19:55:27.787Z,26.00
2023-02-13T20:01:59.988Z,24.30
2023-02-13T20:05:32.350Z,28.33
2023-02-13T20:08:37.199Z,23.25
2023-02-13T20:11:41.215Z,36.13
2023-02-13T20:14:44.612Z,23.75
2023-02-13T20:17:54.380Z,25.40
2023-02-13T20:20:57.944Z,24.52
2023-02-13T20:24:03.048Z,25.48
2023-02-13T20:27:10.576Z,28.58
2023-02-13T20:30:16.168Z,29.13
2023-02-13T20:33:19.582Z,26.13
2023-02-13T20:41:46.427Z,35.15
2023-02-13T20:45:54.362Z,27.23
2023-02-13T20:49:21.758Z,28.15
2023-02-13T20:52:26.380Z,24.15
2023-02-13T20:55:30.484Z,32.45
2023-02-13T21:04:14.825Z,30.40
2023-02-13T21:07:18.962Z,23.13
2023-02-13T21:10:25.126Z,25.00
2023-02-13T21:14:06.142Z,31.27
2023-02-13T21:17:10.431Z,30.27
2023-02-13T21:21:09.569Z,27.77
2023-02-13T21:33:55.757Z,22.40
2023-02-13T21:37:13.544Z,31.35
2023-02-13T21:40:25.725Z,27.70
2023-02-13T21:47:30.550Z,29.60
2023-02-13T21:54:22.342Z,31.23
2023-02-13T21:57:55.018Z,31.30
2023-02-13T22:21:05.290Z,27.45
2023-02-13T22:24:46.472Z,31.80
2023-02-13T22:27:50.503Z,36.28
2023-02-13T22:30:54.706Z,33.15
2023-02-13T22:34:03.950Z,26.33
2023-02-13T22:37:09.490Z,31.90
2023-02-13T22:40:13.879Z,31.98
2023-02-13T22:43:21.174Z,32.95
2023-02-13T22:46:29.592Z,26.52
2023-02-13T22:49:35.853Z,38.83
2023-02-13T22:52:44.865Z,32.30
2023-02-13T22:55:48.409Z,25.05
2023-02-13T22:58:52.881Z,29.80
2023-02-13T23:01:56.413Z,27.83
2023-02-13T23:05:01.857Z,31.55
2023-02-13T23:08:07.070Z,34.22
2023-02-13T23:11:31.133Z,33.95
2023-02-13T23:14:38.109Z,27.55
2023-02-13T23:18:00.439Z,29.95
2023-02-13T23:21:06.131Z,25.98
2023-02-13T23:24:11.807Z,27.52
2023-02-13T23:27:22.122Z,32.38
2023-02-13T23:30:28.607Z,31.88
2023-02-13T23:33:33.078Z,28.20
2023-02-13T23:36:37.360Z,30.15
2023-02-13T23:39:42.501Z,35.67
2023-02-13T23:42:46.423Z,32.05
2023-02-13T23:45:53.850Z,25.05
2023-02-13T23:49:01.909Z,29.98
2023-02-13T23:52:05.443Z,28.23
2023-02-13T23:55:10.483Z,34.17
2023-02-13T23:58:14.279Z,29.80
